createdAt,value
2018-12-19T00:01:03.138Z,81.30
2018-12-19T00:03:31.569Z,91.03
2018-12-19T00:06:00.071Z,85.30
2018-12-19T00:08:28.828Z,83.70
2018-12-19T00:10:57.322Z,77.00
2018-12-19T00:13:25.876Z,79.70
2018-12-19T00:15:54.327Z,67.80
2018-12-19T00:18:23.156Z,85.37
2018-12-19T00:20:51.656Z,77.77
2018-12-19T00:23:20.140Z,86.60
2018-12-19T00:25:48.608Z,80.17
2018-12-19T00:28:17.122Z,76.80
2018-12-19T00:30:45.691Z,76.53
2018-12-19T00:33:14.171Z,74.77
2018-12-19T00:35:42.679Z,75.57
2018-12-19T00:38:11.324Z,84.00
2018-12-19T00:40:39.795Z,91.77
2018-12-19T00:43:08.631Z,84.40
2018-12-19T00:45:37.103Z,90.50
2018-12-19T00:48:05.724Z,89.73
2018-12-19T00:50:34.207Z,78.70
2018-12-19T00:53:02.948Z,94.27
2018-12-19T00:55:31.432Z,76.83
2018-12-19T00:57:59.960Z,84.83
2018-12-19T01:00:28.736Z,88.30
2018-12-19T01:02:57.776Z,78.60
2018-12-19T01:05:26.260Z,85.37
2018-12-19T01:07:54.828Z,92.27
2018-12-19T01:10:23.479Z,86.00
2018-12-19T01:12:52.256Z,81.30
2018-12-19T01:15:20.744Z,83.60
2018-12-19T01:17:49.207Z,76.97
2018-12-19T01:20:17.979Z,87.07
2018-12-19T01:22:47.092Z,75.67
2018-12-19T01:25:15.517Z,86.20
2018-12-19T01:27:44.009Z,79.63
2018-12-19T01:30:12.507Z,74.93
2018-12-19T01:32:41.096Z,67.63
2018-12-19T01:35:09.528Z,79.33
2018-12-19T01:37:37.984Z,78.03
2018-12-19T01:40:06.623Z,74.53
2018-12-19T01:42:35.111Z,73.03
2018-12-19T01:45:03.643Z,77.73
2018-12-19T01:47:32.235Z,79.50
2018-12-19T01:50:00.723Z,71.60
2018-12-19T01:52:29.172Z,73.10
2018-12-19T01:55:04.256Z,82.93
2018-12-19T01:57:32.703Z,80.90
2018-12-19T02:00:01.151Z,80.50
2018-12-19T02:02:29.651Z,75.30
2018-12-19T02:04:58.411Z,80.60
2018-12-19T02:07:26.855Z,74.57
2018-12-19T02:09:55.684Z,84.93
2018-12-19T02:12:24.179Z,82.53
2018-12-19T02:14:52.949Z,93.47
2018-12-19T02:17:21.391Z,86.77
2018-12-19T02:19:49.862Z,71.13
2018-12-19T02:22:18.770Z,75.73
2018-12-19T02:24:47.251Z,83.60
2018-12-19T02:27:15.706Z,84.37
2018-12-19T02:29:44.199Z,77.13
2018-12-19T02:32:12.665Z,78.20
2018-12-19T02:34:41.480Z,82.37
2018-12-19T02:37:10.263Z,77.37
2018-12-19T02:39:39.123Z,80.43
2018-12-19T02:42:07.667Z,81.90
2018-12-19T02:44:36.110Z,87.57
2018-12-19T02:47:05.186Z,73.03
2018-12-19T02:49:33.646Z,86.33
2018-12-19T02:52:02.486Z,83.90
2018-12-19T02:54:30.962Z,88.37
2018-12-19T02:56:59.414Z,81.13
2018-12-19T02:59:28.198Z,73.47
2018-12-19T03:01:57.032Z,75.93
2018-12-19T03:04:25.678Z,91.63
2018-12-19T03:06:54.060Z,78.00
2018-12-19T03:09:22.528Z,98.87
2018-12-19T03:11:51.004Z,87.97
2018-12-19T03:14:19.444Z,84.50
2018-12-19T03:16:47.901Z,92.13
2018-12-19T03:19:16.399Z,84.50
2018-12-19T03:21:44.935Z,80.73
2018-12-19T03:24:13.421Z,82.53
2018-12-19T03:26:41.885Z,86.00
2018-12-19T03:29:10.347Z,79.40
2018-12-19T03:31:38.805Z,82.23
2018-12-19T03:34:07.342Z,84.53
2018-12-19T03:36:35.951Z,86.60
2018-12-19T03:39:07.379Z,87.53
2018-12-19T03:41:35.996Z,87.23
2018-12-19T03:44:05.095Z,85.87
2018-12-19T03:46:33.601Z,94.67
2018-12-19T03:49:02.396Z,90.53
2018-12-19T03:51:31.151Z,84.17
2018-12-19T03:53:59.612Z,92.07
2018-12-19T03:56:28.159Z,89.17
2018-12-19T03:58:56.623Z,99.53
2018-12-19T04:01:25.356Z,100.47
2018-12-19T04:03:53.928Z,104.00
2018-12-19T04:06:22.383Z,87.53
2018-12-19T04:08:50.848Z,96.27
2018-12-19T04:11:19.900Z,87.17
2018-12-19T04:13:49.159Z,93.37
2018-12-19T04:16:17.635Z,95.20
2018-12-19T04:18:46.832Z,85.60
2018-12-19T04:21:15.381Z,87.20
2018-12-19T04:23:43.812Z,96.20
2018-12-19T04:26:12.228Z,101.53
2018-12-19T04:28:40.672Z,92.73
2018-12-19T04:31:09.804Z,101.83
2018-12-19T04:33:38.362Z,95.80
2018-12-19T04:36:07.149Z,90.27
2018-12-19T04:38:35.698Z,98.37
2018-12-19T04:41:04.517Z,98.47
2018-12-19T04:43:33.068Z,99.67
2018-12-19T04:46:01.732Z,99.67
2018-12-19T04:48:30.208Z,91.20
2018-12-19T04:50:58.746Z,91.00
2018-12-19T04:53:27.216Z,89.10
2018-12-19T04:55:55.971Z,87.30
2018-12-19T04:58:24.441Z,93.17
2018-12-19T05:00:52.945Z,102.33
2018-12-19T05:03:21.421Z,102.23
2018-12-19T05:05:50.333Z,85.73
2018-12-19T05:08:18.936Z,98.93
2018-12-19T05:10:47.512Z,104.93
2018-12-19T05:13:16.217Z,102.60
2018-12-19T05:15:45.065Z,100.93
2018-12-19T05:18:13.864Z,86.35
2018-12-19T05:20:42.692Z,87.70
2018-12-19T05:23:11.452Z,96.30
2018-12-19T05:25:40.520Z,85.93
2018-12-19T05:28:09.249Z,86.87
2018-12-19T05:30:37.952Z,101.10
2018-12-19T05:33:06.731Z,93.03
2018-12-19T05:35:35.356Z,95.97
2018-12-19T05:38:04.792Z,87.17
2018-12-19T05:40:33.368Z,92.43
2018-12-19T05:43:02.032Z,87.60
2018-12-19T05:45:30.609Z,90.07
2018-12-19T05:47:59.804Z,88.23
2018-12-19T05:50:29.036Z,96.03
2018-12-19T05:52:58.005Z,94.63
2018-12-19T05:55:26.612Z,97.37
2018-12-19T05:57:55.206Z,92.43
2018-12-19T06:00:26.652Z,89.23
2018-12-19T06:02:55.305Z,92.87
2018-12-19T06:05:23.925Z,88.77
2018-12-19T06:07:52.827Z,84.97
2018-12-19T06:10:26.116Z,77.97
2018-12-19T06:12:50.469Z,81.50
2018-12-19T06:15:19.116Z,86.70
2018-12-19T06:17:48.252Z,78.57
2018-12-19T06:20:16.847Z,90.23
2018-12-19T06:22:45.407Z,83.23
2018-12-19T06:25:14.210Z,85.83
2018-12-19T06:27:42.696Z,92.00
2018-12-19T06:30:11.203Z,87.42
2018-12-19T06:32:39.716Z,89.03
2018-12-19T06:35:08.211Z,76.27
2018-12-19T06:37:36.659Z,87.77
2018-12-19T06:40:06.575Z,89.43
2018-12-19T06:42:35.201Z,77.43
2018-12-19T06:45:05.255Z,83.27
2018-12-19T06:47:34.135Z,89.97
2018-12-19T06:50:03.006Z,84.90
2018-12-19T06:52:32.031Z,92.20
2018-12-19T06:55:00.597Z,85.97
2018-12-19T06:57:29.723Z,84.13
2018-12-19T06:59:58.223Z,75.60
2018-12-19T07:02:33.019Z,72.20
2018-12-19T07:05:01.508Z,67.03
2018-12-19T07:07:30.143Z,75.23
2018-12-19T07:09:58.675Z,81.37
2018-12-19T07:12:28.895Z,67.23
2018-12-19T07:14:57.427Z,79.53
2018-12-19T07:17:26.087Z,70.77
2018-12-19T07:19:54.963Z,69.20
2018-12-19T07:22:23.411Z,73.60
2018-12-19T07:24:51.915Z,73.63
2018-12-19T07:27:20.483Z,77.40
2018-12-19T07:29:49.063Z,68.30
2018-12-19T07:32:17.542Z,69.57
2018-12-19T07:34:46.315Z,70.53
2018-12-19T07:37:14.915Z,80.70
2018-12-19T07:39:43.399Z,78.77
2018-12-19T07:42:12.191Z,96.53
2018-12-19T07:44:40.801Z,94.80
2018-12-19T07:47:09.339Z,70.30
2018-12-19T07:49:38.203Z,82.07
2018-12-19T07:52:06.775Z,70.90
2018-12-19T07:54:35.276Z,67.40
2018-12-19T07:57:03.808Z,71.57
2018-12-19T07:59:32.290Z,66.93
2018-12-19T08:02:01.106Z,68.37
2018-12-19T08:04:44.403Z,70.37
2018-12-19T08:07:12.907Z,69.83
2018-12-19T08:09:41.746Z,64.57
2018-12-19T08:12:10.247Z,72.87
2018-12-19T08:14:38.887Z,59.70
2018-12-19T08:17:07.825Z,60.40
2018-12-19T08:19:36.446Z,60.87
2018-12-19T08:22:04.922Z,69.53
2018-12-19T08:24:33.406Z,65.50
2018-12-19T08:27:02.146Z,71.67
2018-12-19T08:29:30.592Z,53.30
2018-12-19T08:31:59.086Z,66.27
2018-12-19T08:34:27.846Z,58.00
2018-12-19T08:36:56.798Z,63.23
2018-12-19T08:39:25.287Z,70.87
2018-12-19T08:41:54.922Z,65.43
2018-12-19T08:44:24.435Z,60.73
2018-12-19T08:46:52.442Z,80.17
2018-12-19T08:49:21.090Z,74.20
2018-12-19T08:51:49.562Z,73.97
2018-12-19T08:54:18.050Z,76.80
2018-12-19T08:56:46.606Z,71.37
2018-12-19T08:59:15.094Z,72.10
2018-12-19T09:01:44.255Z,74.23
2018-12-19T09:04:12.686Z,64.70
2018-12-19T09:06:41.499Z,63.77
2018-12-19T09:09:10.238Z,63.70
2018-12-19T09:11:38.667Z,73.83
2018-12-19T09:14:07.142Z,70.13
2018-12-19T09:16:35.683Z,71.83
2018-12-19T09:19:04.790Z,70.20
2018-12-19T09:21:33.270Z,69.53
2018-12-19T09:24:02.007Z,75.23
2018-12-19T09:26:30.585Z,76.33
2018-12-19T09:28:59.078Z,76.17
2018-12-19T09:31:27.886Z,73.47
2018-12-19T09:33:56.337Z,74.90
2018-12-19T09:36:24.817Z,67.07
2018-12-19T09:38:53.270Z,70.93
2018-12-19T09:41:21.721Z,65.43
2018-12-19T09:43:50.261Z,68.33
2018-12-19T09:46:18.720Z,63.80
2018-12-19T09:48:47.524Z,73.27
2018-12-19T09:51:16.033Z,70.33
2018-12-19T09:53:44.608Z,63.27
2018-12-19T09:56:13.425Z,66.40
2018-12-19T09:58:41.969Z,59.70
2018-12-19T10:01:10.569Z,61.60
2018-12-19T10:03:39.845Z,59.00
2018-12-19T10:06:08.373Z,56.93
2018-12-19T10:08:36.848Z,62.27
2018-12-19T10:11:05.597Z,54.73
2018-12-19T10:13:34.052Z,58.30
2018-12-19T10:16:04.165Z,56.60
2018-12-19T10:18:31.215Z,49.83
2018-12-19T10:21:01.408Z,47.47
2018-12-19T10:23:29.917Z,49.33
2018-12-19T10:26:14.146Z,40.33
2018-12-19T10:28:42.605Z,40.60
2018-12-19T10:31:11.128Z,39.03
2018-12-19T10:33:39.680Z,40.73
2018-12-19T10:36:08.469Z,40.60
2018-12-19T10:38:37.251Z,38.60
2018-12-19T10:41:05.684Z,27.37
2018-12-19T10:43:34.262Z,32.77
2018-12-19T10:46:03.289Z,29.07
2018-12-19T10:48:31.781Z,41.30
2018-12-19T10:51:00.552Z,32.43
2018-12-19T10:53:29.349Z,26.63
2018-12-19T10:55:57.775Z,35.67
2018-12-19T10:58:26.405Z,36.80
2018-12-19T11:01:01.372Z,35.37
2018-12-19T11:03:29.862Z,34.47
2018-12-19T11:05:58.537Z,36.17
2018-12-19T11:08:27.104Z,36.83
2018-12-19T11:10:55.985Z,39.20
2018-12-19T11:13:24.464Z,40.85
2018-12-19T11:15:53.597Z,39.30
2018-12-19T11:18:22.396Z,35.60
2018-12-19T11:20:51.518Z,35.60
2018-12-19T11:23:19.964Z,40.20
2018-12-19T11:25:48.444Z,38.63
2018-12-19T11:28:16.893Z,39.73
2018-12-19T11:30:45.476Z,33.83
2018-12-19T11:33:14.240Z,40.67
2018-12-19T11:35:42.716Z,44.53
2018-12-19T11:38:11.548Z,43.17
2018-12-19T11:40:40.000Z,46.20
2018-12-19T11:43:08.573Z,42.37
2018-12-19T11:45:37.016Z,42.53
2018-12-19T11:49:08.392Z,42.80
2018-12-19T11:51:36.853Z,38.10
2018-12-19T11:54:05.284Z,41.10
2018-12-19T11:56:33.789Z,45.17
2018-12-19T11:59:02.777Z,32.73
2018-12-19T12:01:31.528Z,41.90
2018-12-19T12:04:00.168Z,44.10
2018-12-19T12:06:29.353Z,42.43
2018-12-19T12:08:58.001Z,41.53
2018-12-19T12:11:26.648Z,46.43
2018-12-19T12:13:55.740Z,45.73
2018-12-19T12:16:24.628Z,43.30
2018-12-19T12:18:53.424Z,41.57
2018-12-19T12:21:22.171Z,47.13
2018-12-19T12:23:50.888Z,44.67
2018-12-19T12:26:19.552Z,48.13
2018-12-19T12:28:48.228Z,46.03
2018-12-19T12:31:17.164Z,41.97
2018-12-19T12:33:47.997Z,47.17
2018-12-19T12:36:16.709Z,46.53
2018-12-19T12:38:45.448Z,48.20
2018-12-19T12:41:14.596Z,50.73
2018-12-19T12:43:43.526Z,49.33
2018-12-19T12:46:12.340Z,53.17
2018-12-19T12:48:41.344Z,58.23
2018-12-19T12:51:10.217Z,57.23
2018-12-19T12:53:39.074Z,35.80
2018-12-19T12:56:07.721Z,40.30
2018-12-19T12:58:36.296Z,35.77
2018-12-19T13:01:05.182Z,40.50
2018-12-19T13:03:34.020Z,37.70
2018-12-19T13:06:03.588Z,36.63
2018-12-19T13:08:32.920Z,38.13
2018-12-19T13:11:01.593Z,42.97
2018-12-19T13:13:30.177Z,49.37
2018-12-19T13:15:58.893Z,44.37
2018-12-19T13:18:27.521Z,44.80
2018-12-19T13:20:56.196Z,46.73
2018-12-19T13:23:25.088Z,47.60
2018-12-19T13:25:53.780Z,41.90
2018-12-19T13:28:22.740Z,53.67
2018-12-19T13:30:52.272Z,42.17
2018-12-19T13:33:20.937Z,45.83
2018-12-19T13:35:49.620Z,46.37
2018-12-19T13:38:18.315Z,55.80
2018-12-19T13:43:30.116Z,47.70
2018-12-19T13:45:59.179Z,48.40
2018-12-19T13:48:27.939Z,43.33
2018-12-19T13:50:56.739Z,47.17
2018-12-19T13:53:25.500Z,49.20
2018-12-19T13:55:54.476Z,67.00
2018-12-19T13:58:23.039Z,62.73
2018-12-19T14:00:51.592Z,55.50
2018-12-19T14:03:20.111Z,55.43
2018-12-19T14:05:48.692Z,65.77
2018-12-19T14:08:17.476Z,54.07
2018-12-19T14:10:46.520Z,61.57
2018-12-19T14:13:15.639Z,49.23
2018-12-19T14:15:44.185Z,56.80
2018-12-19T14:18:12.691Z,63.73
2018-12-19T14:20:41.576Z,60.00
2018-12-19T14:23:10.103Z,43.90
2018-12-19T14:25:38.700Z,36.47
2018-12-19T14:28:07.219Z,57.60
2018-12-19T14:30:36.912Z,58.07
2018-12-19T14:36:37.079Z,52.43
2018-12-19T14:39:08.031Z,57.33
2018-12-19T14:41:36.747Z,37.03
2018-12-19T14:44:05.279Z,52.50
2018-12-19T14:46:33.839Z,64.30
2018-12-19T14:49:03.073Z,55.37
2018-12-19T14:51:31.742Z,63.57
2018-12-19T14:54:00.332Z,60.57
2018-12-19T14:56:29.124Z,52.03
2018-12-19T14:58:57.992Z,35.50
2018-12-19T15:01:26.727Z,53.67
2018-12-19T15:03:57.835Z,63.17
2018-12-19T15:06:27.003Z,62.50
2018-12-19T15:08:55.650Z,58.30
2018-12-19T15:11:24.455Z,61.50
2018-12-19T15:13:53.799Z,66.43
2018-12-19T15:16:23.898Z,62.33
2018-12-19T15:18:52.859Z,61.57
2018-12-19T15:21:21.902Z,58.97
2018-12-19T15:23:51.914Z,55.50
2018-12-19T15:26:20.965Z,61.23
2018-12-19T15:28:49.970Z,67.37
2018-12-19T15:31:19.015Z,60.43
2018-12-19T15:33:48.006Z,59.10
2018-12-19T15:36:17.038Z,60.60
2018-12-19T15:38:46.103Z,70.77
2018-12-19T15:41:15.209Z,71.83
2018-12-19T15:43:44.178Z,66.83
2018-12-19T15:46:13.450Z,56.80
2018-12-19T15:48:42.778Z,65.20
2018-12-19T15:51:11.850Z,39.00
2018-12-19T15:53:40.862Z,66.20
2018-12-19T15:56:09.874Z,61.73
2018-12-19T15:58:38.867Z,68.83
2018-12-19T16:01:07.714Z,56.07
2018-12-19T16:03:36.654Z,52.70
2018-12-19T16:06:05.488Z,58.57
2018-12-19T16:08:34.195Z,55.30
2018-12-19T16:11:03.418Z,66.63
2018-12-19T16:13:32.254Z,54.47
2018-12-19T16:16:00.974Z,54.07
2018-12-19T16:18:30.254Z,57.97
2018-12-19T16:20:59.272Z,66.73
2018-12-19T16:23:28.918Z,51.77
2018-12-19T16:25:57.702Z,63.33
2018-12-19T16:28:26.678Z,62.08
2018-12-19T16:30:55.451Z,57.30
2018-12-19T16:33:24.154Z,57.87
2018-12-19T16:35:52.919Z,45.30
2018-12-19T16:38:21.702Z,63.55
2018-12-19T16:40:50.517Z,67.40
2018-12-19T16:43:19.590Z,39.97
2018-12-19T16:45:48.273Z,53.67
2018-12-19T16:48:17.022Z,66.27
2018-12-19T16:50:46.095Z,61.27
2018-12-19T16:53:14.693Z,63.00
2018-12-19T16:55:43.322Z,48.80
2018-12-19T16:58:12.442Z,55.63
2018-12-19T17:00:41.133Z,50.50
2018-12-19T17:03:10.122Z,55.60
2018-12-19T17:05:38.798Z,39.80
2018-12-19T17:08:07.498Z,37.87
2018-12-19T17:10:36.345Z,61.90
2018-12-19T17:13:05.521Z,64.23
2018-12-19T17:15:38.880Z,64.73
2018-12-19T17:18:09.502Z,55.60
2018-12-19T17:20:39.142Z,56.67
2018-12-19T17:23:08.194Z,53.13
2018-12-19T17:25:37.058Z,57.63
2018-12-19T17:28:06.046Z,69.87
2018-12-19T17:30:34.985Z,44.93
2018-12-19T17:37:56.341Z,53.83
2018-12-19T17:40:25.581Z,49.20
2018-12-19T17:42:59.376Z,49.10
2018-12-19T17:45:23.545Z,51.00
2018-12-19T17:47:52.291Z,59.30
2018-12-19T17:50:21.065Z,44.70
2018-12-19T17:52:50.227Z,53.27
2018-12-19T17:55:18.989Z,57.17
2018-12-19T17:57:48.085Z,41.57
2018-12-19T18:00:17.030Z,63.87
2018-12-19T18:02:45.921Z,44.43
2018-12-19T18:05:16.090Z,63.13
2018-12-19T18:07:48.982Z,51.23
2018-12-19T18:10:17.930Z,45.00
2018-12-19T18:12:47.021Z,55.63
2018-12-19T18:15:15.878Z,39.57
2018-12-19T18:17:44.953Z,54.40
2018-12-19T18:20:13.688Z,64.00
2018-12-19T18:22:42.857Z,56.90
2018-12-19T18:25:11.814Z,51.60
2018-12-19T18:27:40.713Z,30.37
2018-12-19T18:30:10.262Z,63.50
2018-12-19T18:32:39.089Z,44.80
2018-12-19T18:35:08.269Z,50.93
2018-12-19T18:37:37.525Z,51.87
2018-12-19T18:40:06.439Z,57.87
2018-12-19T18:42:35.414Z,39.40
2018-12-19T18:45:04.407Z,58.40
2018-12-19T18:47:35.186Z,57.93
2018-12-19T18:50:04.090Z,45.50
2018-12-19T18:52:32.945Z,62.07
2018-12-19T18:55:01.926Z,60.27
2018-12-19T18:57:31.062Z,68.20
2018-12-19T19:00:00.068Z,63.23
2018-12-19T19:02:29.433Z,64.00
2018-12-19T19:05:13.424Z,67.50
2018-12-19T19:07:42.974Z,60.60
2018-12-19T19:10:12.395Z,57.70
2018-12-19T19:12:41.735Z,62.17
2018-12-19T19:15:11.207Z,55.63
2018-12-19T19:17:40.470Z,73.77
2018-12-19T19:20:09.878Z,71.00
2018-12-19T19:22:39.984Z,71.20
2018-12-19T19:25:09.374Z,62.53
2018-12-19T19:27:38.726Z,67.47
2018-12-19T19:30:09.554Z,67.23
2018-12-19T19:32:38.878Z,71.87
2018-12-19T19:35:08.390Z,64.93
2018-12-19T19:37:42.742Z,70.10
2018-12-19T19:40:20.043Z,51.83
2018-12-19T19:42:50.070Z,49.77
2018-12-19T19:45:25.287Z,63.70
2018-12-19T19:47:56.366Z,61.43
2018-12-19T19:50:25.747Z,64.07
2018-12-19T19:52:55.272Z,65.10
2018-12-19T19:55:24.680Z,69.67
2018-12-19T19:57:58.515Z,63.77
2018-12-19T20:00:31.879Z,44.77
2018-12-19T20:03:01.687Z,67.80
2018-12-19T20:05:31.252Z,74.57
2018-12-19T20:08:00.995Z,76.63
2018-12-19T20:10:30.355Z,40.17
2018-12-19T20:12:59.636Z,65.77
2018-12-19T20:15:28.795Z,67.03
2018-12-19T20:17:58.103Z,69.67
2018-12-19T20:20:27.826Z,49.73
2018-12-19T20:22:57.003Z,68.63
2018-12-19T20:25:26.091Z,71.37
2018-12-19T20:27:55.374Z,70.70
2018-12-19T20:30:24.725Z,72.10
2018-12-19T20:32:54.121Z,57.50
2018-12-19T20:35:23.461Z,51.37
2018-12-19T20:37:52.805Z,76.77
2018-12-19T20:40:22.150Z,45.35
2018-12-19T20:42:51.925Z,79.63
2018-12-19T20:45:21.251Z,57.00
2018-12-19T20:47:50.675Z,76.47
2018-12-19T20:52:43.735Z,41.83
2018-12-19T20:55:12.884Z,69.97
2018-12-19T20:57:42.176Z,81.43
2018-12-19T21:00:11.689Z,46.80
2018-12-19T21:02:41.588Z,77.40
2018-12-19T21:05:10.844Z,56.03
2018-12-19T21:07:40.510Z,73.03
2018-12-19T21:10:09.959Z,68.47
2018-12-19T21:12:39.141Z,64.03
2018-12-19T21:15:08.790Z,74.53
2018-12-19T21:17:43.080Z,61.73
2018-12-19T21:20:12.422Z,67.92
2018-12-19T21:22:41.982Z,73.40
2018-12-19T21:25:11.291Z,67.37
2018-12-19T21:27:40.870Z,76.27
2018-12-19T21:30:10.736Z,69.97
2018-12-19T21:32:40.143Z,81.87
2018-12-19T21:35:09.474Z,81.33
2018-12-19T21:37:40.272Z,82.73
2018-12-19T21:40:09.895Z,81.63
2018-12-19T21:42:39.066Z,74.23
2018-12-19T21:45:07.914Z,81.53
2018-12-19T21:47:36.510Z,76.07
2018-12-19T21:50:05.382Z,81.73
2018-12-19T21:52:34.140Z,72.60
2018-12-19T21:55:02.984Z,75.27
2018-12-19T21:57:31.850Z,86.40
2018-12-19T22:00:00.511Z,84.27
2018-12-19T22:02:29.359Z,61.83
2018-12-19T22:04:57.908Z,89.10
2018-12-19T22:07:26.623Z,75.27
2018-12-19T22:10:09.558Z,71.93
2018-12-19T22:12:38.300Z,79.77
2018-12-19T22:15:07.194Z,84.57
2018-12-19T22:17:54.761Z,86.37
2018-12-19T22:20:23.393Z,88.25
2018-12-19T22:22:51.992Z,97.17
2018-12-19T22:26:23.495Z,80.70
2018-12-19T22:28:52.083Z,83.37
2018-12-19T22:31:20.638Z,81.50
2018-12-19T22:33:49.234Z,83.10
2018-12-19T22:36:18.019Z,86.30
2018-12-19T22:38:46.640Z,87.23
2018-12-19T22:41:15.269Z,80.93
2018-12-19T22:43:43.774Z,85.57
2018-12-19T22:46:12.579Z,79.23
2018-12-19T22:48:41.311Z,72.47
2018-12-19T22:51:09.957Z,76.30
2018-12-19T22:53:38.676Z,77.03
2018-12-19T22:56:07.945Z,76.30
2018-12-19T22:58:36.540Z,77.47
2018-12-19T23:01:10.383Z,76.07
2018-12-19T23:03:44.109Z,90.93
2018-12-19T23:06:13.332Z,86.43
2018-12-19T23:08:41.964Z,79.40
2018-12-19T23:11:10.428Z,81.93
2018-12-19T23:13:39.309Z,64.27
2018-12-19T23:16:08.445Z,86.83
2018-12-19T23:18:37.920Z,86.70
2018-12-19T23:21:05.536Z,94.07
2018-12-19T23:23:34.097Z,83.17
2018-12-19T23:26:02.675Z,82.30
2018-12-19T23:28:31.157Z,76.20
2018-12-19T23:30:59.684Z,85.57
2018-12-19T23:33:28.205Z,81.10
2018-12-19T23:35:56.781Z,85.47
2018-12-19T23:38:25.493Z,78.47
2018-12-19T23:40:53.902Z,82.67
2018-12-19T23:43:22.481Z,88.43
2018-12-19T23:45:51.029Z,85.50
2018-12-19T23:48:19.938Z,82.05
2018-12-19T23:50:48.592Z,93.43
2018-12-19T23:53:17.111Z,88.13
2018-12-19T23:55:45.567Z,84.57
2018-12-19T23:58:14.420Z,87.67
